Time;durP1;ratioP1;P1;durP2;ratioP2;P2;SDS_P1;SDS_P2;PMS_P1;PMS_P2;Temp;Humidity;BMP_temperature;BMP_pressure;BME280_temperature;BME280_humidity;BME280_pressure;Samples;Min_cycle;Max_cycle;Signal;HPM_P1;HPM_P2
2024/01/28 00:00:20;;;;;;;11.40;9.25;;;1.00;99.90;;;;;;5079686;28;20252;-88
2024/01/28 00:02:47;;;;;;;10.50;7.90;;;1.00;99.90;;;;;;5090419;28;20194;-88
2024/01/28 00:05:14;;;;;;;12.68;8.63;;;1.00;99.90;;;;;;5088339;28;20237;-88
2024/01/28 00:07:43;;;;;;;10.20;8.13;;;0.90;99.90;;;;;;5087714;28;20269;-88
2024/01/28 00:10:10;;;;;;;10.07;7.50;;;1.10;99.90;;;;;;5091003;28;20199;-86
2024/01/28 00:12:37;;;;;;;12.68;9.00;;;0.90;99.90;;;;;;5090440;28;20191;-85
2024/01/28 00:15:06;;;;;;;10.07;8.48;;;1.40;99.90;;;;;;5079216;28;20820;-88
2024/01/28 00:17:33;;;;;;;11.02;7.88;;;0.90;99.90;;;;;;5086812;28;20210;-88
2024/01/28 00:20:00;;;;;;;11.75;8.07;;;0.40;99.90;;;;;;5085303;28;20687;-88
2024/01/28 00:22:27;;;;;;;10.50;8.07;;;0.90;99.90;;;;;;5087445;28;20226;-88
2024/01/28 00:24:55;;;;;;;13.65;8.50;;;1.00;99.90;;;;;;5090763;28;20211;-89
2024/01/28 00:27:22;;;;;;;12.95;8.20;;;0.90;99.90;;;;;;5077887;28;20279;-89
2024/01/28 00:29:48;;;;;;;10.75;8.75;;;1.10;99.90;;;;;;5086783;28;20742;-89
2024/01/28 00:32:15;;;;;;;7.57;6.78;;;1.00;99.90;;;;;;5090571;28;20269;-89
2024/01/28 00:34:42;;;;;;;12.05;7.18;;;3.30;99.90;;;;;;5090343;28;20205;-88
2024/01/28 00:37:10;;;;;;;9.20;7.10;;;1.10;99.90;;;;;;5081680;28;20562;-89
2024/01/28 00:39:37;;;;;;;10.07;7.82;;;3.10;99.90;;;;;;5078908;28;20220;-88
2024/01/28 00:42:05;;;;;;;8.30;7.38;;;1.10;99.90;;;;;;5088307;28;20195;-88
2024/01/28 00:44:32;;;;;;;13.98;8.20;;;0.90;99.90;;;;;;5081155;28;20242;-88
2024/01/28 00:47:00;;;;;;;9.85;8.02;;;0.90;99.90;;;;;;5084885;28;20563;-89
2024/01/28 00:49:29;;;;;;;9.73;7.45;;;0.90;99.90;;;;;;5088789;28;20298;-88
2024/01/28 00:51:57;;;;;;;10.15;7.53;;;1.00;99.90;;;;;;5080030;28;20566;-89
2024/01/28 00:54:24;;;;;;;8.18;7.30;;;0.90;99.90;;;;;;5078446;28;20302;-89
2024/01/28 00:56:52;;;;;;;8.25;7.28;;;;;;;;;;5087967;28;20293;-88
2024/01/28 00:59:21;;;;;;;7.32;6.55;;;0.80;99.90;;;;;;5090035;28;20656;-89
2024/01/28 01:01:48;;;;;;;8.60;7.00;;;0.90;99.90;;;;;;5081303;28;20195;-89
2024/01/28 01:04:15;;;;;;;10.05;6.82;;;1.00;99.90;;;;;;5082887;28;20688;-89
2024/01/28 01:06:43;;;;;;;9.73;6.82;;;0.80;99.90;;;;;;5083613;28;20234;-88
2024/01/28 01:09:10;;;;;;;8.50;6.75;;;0.80;99.90;;;;;;5077586;28;20195;-88
2024/01/28 01:11:37;;;;;;;13.10;6.60;;;0.70;99.90;;;;;;5090053;28;20871;-88
2024/01/28 01:14:04;;;;;;;8.77;7.20;;;1.30;99.90;;;;;;5090685;28;20256;-86
2024/01/28 01:16:32;;;;;;;9.95;7.60;;;0.70;99.90;;;;;;5087879;28;20199;-88
2024/01/28 01:18:59;;;;;;;8.35;6.10;;;0.60;99.90;;;;;;5090485;28;20607;-89
2024/01/28 01:21:26;;;;;;;7.65;6.70;;;2.50;99.90;;;;;;5090061;28;20278;-88
2024/01/28 01:23:53;;;;;;;10.15;6.97;;;0.60;99.90;;;;;;5084125;28;20195;-88
2024/01/28 01:26:20;;;;;;;7.57;6.82;;;0.50;99.90;;;;;;5090156;28;20297;-88
2024/01/28 01:28:46;;;;;;;12.52;7.20;;;0.60;99.90;;;;;;5079374;28;20679;-88
2024/01/28 01:31:13;;;;;;;8.90;7.65;;;0.80;99.90;;;;;;5090252;28;20191;-88
2024/01/28 01:33:41;;;;;;;11.77;8.23;;;0.50;99.90;;;;;;5089908;28;20289;-89
2024/01/28 01:36:08;;;;;;;8.02;7.22;;;0.80;99.90;;;;;;5087633;28;20187;-88
2024/01/28 01:38:35;;;;;;;9.57;8.18;;;0.70;99.90;;;;;;5081663;28;20203;-88
2024/01/28 01:41:02;;;;;;;11.98;8.27;;;0.60;99.90;;;;;;5089825;28;20221;-88
2024/01/28 01:43:30;;;;;;;12.57;8.93;;;0.60;99.90;;;;;;5089407;28;20198;-88
2024/01/28 01:45:57;;;;;;;10.50;9.18;;;2.40;99.90;;;;;;5088671;28;20226;-89
2024/01/28 01:48:24;;;;;;;20.98;9.10;;;0.50;99.90;;;;;;5089426;28;20631;-90
2024/01/28 01:50:57;;;;;;;11.43;8.07;;;1.00;99.90;;;;;;5079787;28;20706;-89
2024/01/28 01:53:24;;;;;;;10.35;8.73;;;0.30;99.90;;;;;;5072093;28;20278;-89
2024/01/28 01:55:50;;;;;;;11.95;8.57;;;0.50;99.90;;;;;;5074004;28;20286;-89
2024/01/28 01:58:18;;;;;;;10.18;7.28;;;0.50;99.90;;;;;;5089249;28;20295;-89
2024/01/28 02:00:46;;;;;;;11.90;8.25;;;-0.20;99.90;;;;;;5088804;28;20226;-90
2024/01/28 02:03:13;;;;;;;13.70;6.88;;;0.40;99.90;;;;;;5086734;28;20191;-89
2024/01/28 02:05:40;;;;;;;10.38;8.00;;;0.40;99.90;;;;;;5088360;28;20234;-89
2024/01/28 02:08:09;;;;;;;14.63;8.70;;;4.30;99.90;;;;;;5089700;28;20210;-89
2024/01/28 02:10:36;;;;;;;9.98;8.43;;;0.50;99.90;;;;;;5088567;28;20198;-89
2024/01/28 02:13:03;;;;;;;11.38;8.10;;;0.40;99.90;;;;;;5082068;28;20256;-89
2024/01/28 02:15:37;;;;;;;13.38;7.97;;;0.40;99.90;;;;;;5081051;28;20214;-89
2024/01/28 02:18:05;;;;;;;11.82;8.20;;;0.30;99.90;;;;;;5089034;28;20198;-90
2024/01/28 02:20:33;;;;;;;10.38;8.43;;;0.30;99.90;;;;;;5079925;28;20241;-89
2024/01/28 02:23:00;;;;;;;11.10;9.20;;;0.50;99.90;;;;;;5088130;28;20240;-89
2024/01/28 02:25:29;;;;;;;12.32;7.63;;;0.50;99.90;;;;;;5083538;28;20417;-89
2024/01/28 02:27:58;;;;;;;14.93;8.85;;;;;;;;;;5073217;28;20661;-88
2024/01/28 02:30:27;;;;;;;11.05;9.23;;;;;;;;;;5072014;28;20196;-87
2024/01/28 02:32:54;;;;;;;8.52;6.75;;;0.30;99.90;;;;;;5089146;28;20187;-89
2024/01/28 02:35:23;;;;;;;14.20;9.50;;;0.30;99.90;;;;;;5089229;28;20672;-90
2024/01/28 02:37:50;;;;;;;8.93;7.90;;;0.40;99.90;;;;;;5076331;28;20236;-89
2024/01/28 02:40:18;;;;;;;10.38;8.90;;;0.20;99.90;;;;;;5089365;28;20278;-89
2024/01/28 02:42:48;;;;;;;10.90;8.52;;;0.20;99.90;;;;;;5088146;28;20237;-89
2024/01/28 02:45:16;;;;;;;9.63;8.65;;;0.20;99.90;;;;;;5088955;28;20676;-90
2024/01/28 02:47:43;;;;;;;12.98;8.15;;;0.30;99.90;;;;;;5087715;28;20294;-90
2024/01/28 02:50:10;;;;;;;10.57;8.30;;;;;;;;;;5088264;28;20191;-89
2024/01/28 02:52:38;;;;;;;9.27;8.25;;;0.30;99.90;;;;;;5088175;28;20242;-89
2024/01/28 02:55:06;;;;;;;11.82;7.57;;;0.20;99.90;;;;;;5083058;28;20198;-88
2024/01/28 02:57:32;;;;;;;11.45;8.65;;;0.20;99.90;;;;;;5085287;28;20206;-89
2024/01/28 03:00:02;;;;;;;11.45;8.65;;;0.20;99.90;;;;;;5088943;28;20252;-88
2024/01/28 03:02:29;;;;;;;12.63;8.05;;;0.30;99.90;;;;;;5092253;28;20582;-89
2024/01/28 03:04:57;;;;;;;12.75;8.38;;;0.40;99.90;;;;;;5081348;28;20211;-88
2024/01/28 03:07:25;;;;;;;9.32;7.78;;;0.70;99.90;;;;;;5079737;28;20712;-89
2024/01/28 03:09:53;;;;;;;12.07;8.93;;;0.50;99.90;;;;;;5082455;28;20201;-88
2024/01/28 03:12:21;;;;;;;20.98;8.07;;;0.60;99.90;;;;;;5088405;28;20205;-89
2024/01/28 03:14:48;;;;;;;10.25;7.72;;;0.50;99.90;;;;;;5088128;28;20293;-89
2024/01/28 03:17:16;;;;;;;10.80;7.93;;;;;;;;;;5082210;28;20655;-89
2024/01/28 03:19:43;;;;;;;10.65;7.97;;;0.40;99.90;;;;;;5081520;28;20203;-88
2024/01/28 03:22:10;;;;;;;13.52;8.60;;;0.40;99.90;;;;;;5092259;28;20688;-89
2024/01/28 03:24:40;;;;;;;9.13;7.65;;;0.40;99.90;;;;;;5091402;28;20194;-89
2024/01/28 03:27:06;;;;;;;8.55;7.63;;;0.30;99.90;;;;;;5090710;28;20616;-89
2024/01/28 03:29:33;;;;;;;12.57;7.53;;;0.30;99.90;;;;;;5083578;28;20268;-88
2024/01/28 03:32:01;;;;;;;8.85;7.95;;;0.40;99.90;;;;;;5079314;28;20582;-90
2024/01/28 03:34:31;;;;;;;10.65;8.32;;;;;;;;;;5091125;28;20606;-89
2024/01/28 03:36:57;;;;;;;11.27;8.63;;;0.20;99.90;;;;;;5085750;28;20222;-90
2024/01/28 03:39:24;;;;;;;11.82;8.23;;;0.30;99.90;;;;;;5091698;28;20317;-89
2024/01/28 03:41:51;;;;;;;12.88;8.27;;;;;;;;;;5087876;28;20278;-89
2024/01/28 03:44:22;;;;;;;14.05;7.80;;;;;;;;;;5081968;28;20198;-89
2024/01/28 03:46:49;;;;;;;10.00;8.68;;;0.10;99.90;;;;;;5077330;28;20227;-90
2024/01/28 03:49:17;;;;;;;11.68;8.23;;;0.30;99.90;;;;;;5091445;28;20263;-89
2024/01/28 03:51:47;;;;;;;10.77;8.63;;;;;;;;;;5079439;28;20199;-89
2024/01/28 03:54:18;;;;;;;13.93;9.85;;;0.20;99.90;;;;;;5090169;28;20195;-89
2024/01/28 03:56:47;;;;;;;11.80;8.65;;;0.10;99.90;;;;;;5081568;28;20206;-89
2024/01/28 03:59:14;;;;;;;11.85;8.23;;;0.10;99.90;;;;;;5086271;28;20218;-90
2024/01/28 04:01:43;;;;;;;11.05;8.85;;;0.20;99.90;;;;;;5089711;28;20664;-89
2024/01/28 04:04:11;;;;;;;11.20;8.40;;;0.00;99.90;;;;;;5085696;28;20199;-89
2024/01/28 04:06:43;;;;;;;17.38;9.00;;;0.20;99.90;;;;;;5091271;28;20218;-89
2024/01/28 04:09:11;;;;;;;10.15;9.05;;;0.10;99.90;;;;;;5091910;28;20202;-89
2024/01/28 04:11:38;;;;;;;13.27;9.00;;;0.10;99.90;;;;;;5090980;28;20193;-86
2024/01/28 04:14:04;;;;;;;9.38;8.38;;;0.00;99.90;;;;;;5091493;28;20241;-89
2024/01/28 04:16:33;;;;;;;12.25;8.25;;;;;;;;;;5091231;28;20190;-88
2024/01/28 04:19:01;;;;;;;10.88;8.70;;;0.00;99.90;;;;;;5082927;28;20660;-89
2024/01/28 04:21:28;;;;;;;10.82;9.75;;;0.00;99.90;;;;;;5088397;28;20694;-89
2024/01/28 04:23:57;;;;;;;13.20;9.80;;;0.40;99.90;;;;;;5090257;28;20202;-90
2024/01/28 04:26:27;;;;;;;10.30;8.75;;;0.10;99.90;;;;;;5091672;28;20572;-89
2024/01/28 04:28:55;;;;;;;10.73;8.88;;;0.10;99.90;;;;;;5092192;28;20187;-89
2024/01/28 04:31:26;;;;;;;12.75;9.05;;;0.00;99.90;;;;;;5099519;28;20222;-89
2024/01/28 04:33:52;;;;;;;11.90;9.05;;;0.10;99.90;;;;;;5097195;28;20214;-89
2024/01/28 04:36:19;;;;;;;15.35;9.15;;;0.00;99.90;;;;;;5097917;28;20192;-89
2024/01/28 04:38:48;;;;;;;14.75;10.70;;;0.20;99.90;;;;;;5098976;28;20292;-89
2024/01/28 04:41:16;;;;;;;14.20;9.23;;;;;;;;;;5082611;28;20195;-89
2024/01/28 04:43:44;;;;;;;14.13;9.77;;;-0.20;99.90;;;;;;5090207;28;20289;-89
2024/01/28 04:46:16;;;;;;;11.52;10.23;;;0.00;99.90;;;;;;5083191;28;20230;-89
2024/01/28 04:48:44;;;;;;;14.20;10.02;;;-0.30;99.90;;;;;;5088672;28;20214;-90
2024/01/28 04:51:12;;;;;;;10.25;9.27;;;;;;;;;;5081185;28;20564;-90
2024/01/28 04:53:40;;;;;;;12.55;10.23;;;-0.10;99.90;;;;;;5086571;28;20207;-89
2024/01/28 04:56:08;;;;;;;10.20;9.30;;;;;;;;;;5078911;28;20289;-89
2024/01/28 04:58:36;;;;;;;12.75;8.48;;;;;;;;;;5084089;28;20207;-89
2024/01/28 05:01:07;;;;;;;15.82;10.82;;;-0.20;99.90;;;;;;5084899;28;20286;-89
2024/01/28 05:03:35;;;;;;;13.10;10.63;;;0.00;99.90;;;;;;5082688;28;20682;-89
2024/01/28 05:06:04;;;;;;;11.23;9.63;;;-0.30;99.90;;;;;;5074760;28;20612;-89
2024/01/28 05:08:32;;;;;;;11.30;9.25;;;0.00;99.90;;;;;;5080169;28;20232;-89
2024/01/28 05:11:00;;;;;;;10.60;9.50;;;-0.20;99.90;;;;;;5083565;28;20248;-89
2024/01/28 05:13:27;;;;;;;11.50;9.55;;;-0.10;99.90;;;;;;5075090;28;20194;-90
2024/01/28 05:15:56;;;;;;;13.38;10.07;;;-0.20;99.90;;;;;;5081967;28;20198;-89
2024/01/28 05:18:26;;;;;;;13.20;10.15;;;-0.20;99.90;;;;;;5078881;28;20202;-89
2024/01/28 05:20:53;;;;;;;12.10;10.07;;;;;;;;;;5080369;28;20202;-89
2024/01/28 05:23:20;;;;;;;15.15;9.95;;;0.10;99.90;;;;;;5073932;28;20290;-90
2024/01/28 05:25:48;;;;;;;16.38;9.23;;;;;;;;;;5078093;28;20223;-89
2024/01/28 05:28:16;;;;;;;12.93;9.55;;;-0.20;99.90;;;;;;5079236;28;20550;-89
2024/01/28 05:30:43;;;;;;;11.35;9.65;;;;;;;;;;5079396;28;20291;-89
2024/01/28 05:33:12;;;;;;;10.00;8.98;;;-0.10;99.90;;;;;;5077762;28;20395;-89
2024/01/28 05:35:40;;;;;;;10.55;8.32;;;-0.10;99.90;;;;;;5077696;28;20191;-89
2024/01/28 05:38:07;;;;;;;10.57;8.63;;;-0.50;99.90;;;;;;5079114;28;20245;-89
2024/01/28 05:40:33;;;;;;;11.32;9.38;;;0.10;99.90;;;;;;5078194;28;20611;-89
2024/01/28 05:43:01;;;;;;;13.18;10.00;;;-0.50;99.90;;;;;;5078989;28;20278;-90
2024/01/28 05:45:27;;;;;;;11.80;9.60;;;0.50;99.90;;;;;;5076919;28;20587;-89
2024/01/28 05:47:56;;;;;;;12.00;9.93;;;-0.20;99.90;;;;;;5078283;28;20274;-89
2024/01/28 05:50:23;;;;;;;12.90;10.38;;;-0.20;99.90;;;;;;5082526;28;20257;-89
2024/01/28 05:52:51;;;;;;;9.77;8.32;;;-0.40;99.90;;;;;;5078241;28;20388;-90
2024/01/28 05:55:18;;;;;;;17.42;10.82;;;-0.20;99.90;;;;;;5077347;28;20218;-89
2024/01/28 05:57:44;;;;;;;12.82;9.63;;;-0.20;99.90;;;;;;5078507;28;20285;-89
2024/01/28 06:00:12;;;;;;;15.48;10.88;;;-0.30;99.90;;;;;;5077923;28;20644;-89
2024/01/28 06:02:39;;;;;;;16.80;10.77;;;-0.80;99.90;;;;;;5076423;28;20282;-88
2024/01/28 06:05:09;;;;;;;15.88;10.18;;;-0.70;99.90;;;;;;5078466;28;20561;-88
2024/01/28 06:07:36;;;;;;;17.08;10.65;;;-0.30;99.90;;;;;;5077176;28;20238;-88
2024/01/28 06:10:04;;;;;;;13.02;10.63;;;-0.80;99.90;;;;;;5079158;28;20692;-89
2024/01/28 06:12:31;;;;;;;13.30;10.40;;;-0.40;99.90;;;;;;5077504;28;20276;-89
2024/01/28 06:15:02;;;;;;;11.80;10.50;;;-0.40;99.90;;;;;;5078498;28;20187;-88
2024/01/28 06:17:29;;;;;;;15.20;11.90;;;-0.30;99.90;;;;;;5079489;28;20199;-89
2024/01/28 06:19:56;;;;;;;15.48;10.57;;;-0.40;99.90;;;;;;5078109;28;20672;-89
2024/01/28 06:22:23;;;;;;;11.40;10.10;;;-0.40;99.90;;;;;;5077484;28;20198;-89
2024/01/28 06:24:51;;;;;;;14.57;11.45;;;-0.40;99.90;;;;;;5079598;28;20623;-89
2024/01/28 06:27:19;;;;;;;12.57;10.77;;;2.10;99.90;;;;;;5075198;28;20253;-89
2024/01/28 06:29:47;;;;;;;11.95;10.23;;;0.30;99.90;;;;;;5088092;28;20288;-89
2024/01/28 06:32:14;;;;;;;16.05;11.95;;;-0.20;99.90;;;;;;5088844;28;20197;-90
2024/01/28 06:34:41;;;;;;;15.40;11.07;;;-0.30;99.90;;;;;;5092362;28;20581;-90
2024/01/28 06:37:08;;;;;;;11.63;10.25;;;;;;;;;;5091412;28;20205;-89
2024/01/28 06:39:35;;;;;;;13.13;11.40;;;;;;;;;;5093174;28;20237;-79
2024/01/28 06:42:02;;;;;;;14.20;11.48;;;-0.40;99.90;;;;;;5077457;28;20195;-79
2024/01/28 06:44:30;;;;;;;14.93;12.00;;;-0.30;99.90;;;;;;5082211;28;20629;-80
2024/01/28 06:46:56;;;;;;;15.52;10.73;;;-0.30;99.90;;;;;;5084009;28;20227;-76
2024/01/28 06:49:22;;;;;;;17.40;11.55;;;-0.30;99.90;;;;;;5091124;28;20206;-81
2024/01/28 06:51:49;;;;;;;11.97;10.40;;;-0.30;99.90;;;;;;5090183;28;20844;-79
2024/01/28 06:54:18;;;;;;;25.98;11.70;;;-0.30;99.90;;;;;;5085401;28;20663;-79
2024/01/28 06:56:45;;;;;;;14.38;10.30;;;-0.30;99.90;;;;;;5077635;28;20659;-74
2024/01/28 06:59:12;;;;;;;11.68;10.48;;;-0.20;99.90;;;;;;5076321;28;20191;-80
2024/01/28 07:01:40;;;;;;;11.88;8.85;;;-0.20;99.90;;;;;;5085696;28;20300;-76
2024/01/28 07:04:07;;;;;;;13.75;11.20;;;-0.20;99.90;;;;;;5080927;28;20203;-75
2024/01/28 07:06:34;;;;;;;12.57;10.38;;;-0.20;99.90;;;;;;5079903;28;20225;-75
2024/01/28 07:09:00;;;;;;;14.10;10.43;;;-0.20;99.90;;;;;;5077657;28;20280;-75
2024/01/28 07:11:27;;;;;;;13.57;9.13;;;-0.30;99.90;;;;;;5090737;28;20559;-76
2024/01/28 07:13:54;;;;;;;11.07;8.75;;;0.30;99.90;;;;;;5088374;28;20563;-77
2024/01/28 07:16:21;;;;;;;13.48;9.57;;;-0.20;99.90;;;;;;5089924;28;20202;-77
2024/01/28 07:18:50;;;;;;;13.82;10.48;;;-0.20;99.90;;;;;;5082604;28;20202;-77
2024/01/28 07:21:16;;;;;;;15.75;10.20;;;-0.20;99.90;;;;;;5088395;28;20198;-77
2024/01/28 07:23:43;;;;;;;14.77;9.43;;;-0.10;99.90;;;;;;5078204;28;20235;-81
2024/01/28 07:26:10;;;;;;;11.70;9.68;;;-0.20;99.90;;;;;;5081919;28;20295;-81
2024/01/28 07:28:37;;;;;;;13.27;11.20;;;-0.20;99.90;;;;;;5076718;28;20205;-81
2024/01/28 07:31:06;;;;;;;10.90;9.20;;;-0.20;99.90;;;;;;5079513;28;20211;-81
2024/01/28 07:33:32;;;;;;;13.50;10.65;;;-0.20;99.90;;;;;;5085598;28;20281;-81
2024/01/28 07:36:01;;;;;;;15.52;11.75;;;-0.20;99.90;;;;;;5088418;28;20195;-81
2024/01/28 07:38:28;;;;;;;16.75;11.35;;;-0.10;99.90;;;;;;5085101;28;20194;-81
2024/01/28 07:40:55;;;;;;;13.52;10.75;;;0.00;99.90;;;;;;5083603;28;20269;-81
2024/01/28 07:43:23;;;;;;;14.20;10.35;;;-0.10;99.90;;;;;;5079803;28;20352;-81
2024/01/28 07:45:50;;;;;;;13.60;11.10;;;-0.10;99.90;;;;;;5076559;28;20207;-79
2024/01/28 07:48:17;;;;;;;14.65;11.75;;;0.00;99.90;;;;;;5081131;28;20622;-77
2024/01/28 07:50:44;;;;;;;13.65;11.40;;;0.20;99.90;;;;;;5087743;28;20216;-76
2024/01/28 07:53:13;;;;;;;15.52;11.88;;;0.20;99.90;;;;;;5086767;28;20219;-77
2024/01/28 07:55:40;;;;;;;15.60;10.38;;;0.30;99.90;;;;;;5080236;28;20547;-79
2024/01/28 07:58:06;;;;;;;16.70;12.00;;;0.30;99.90;;;;;;5089240;28;20206;-76
2024/01/28 08:00:33;;;;;;;19.15;12.18;;;0.40;99.90;;;;;;5082956;28;20356;-75
2024/01/28 08:03:00;;;;;;;12.75;10.82;;;0.40;99.90;;;;;;5080853;28;20277;-76
2024/01/28 08:05:27;;;;;;;20.48;11.80;;;0.40;99.90;;;;;;5086052;28;20191;-76
2024/01/28 08:07:53;;;;;;;14.30;12.00;;;0.60;99.90;;;;;;5080745;28;20223;-77
2024/01/28 08:10:24;;;;;;;13.73;10.65;;;0.50;99.90;;;;;;5079768;28;20203;-75
2024/01/28 08:12:50;;;;;;;13.10;9.88;;;0.60;99.90;;;;;;5081531;28;22309;-76
2024/01/28 08:15:19;;;;;;;15.55;10.85;;;0.70;99.90;;;;;;5082241;28;20682;-75
2024/01/28 08:17:49;;;;;;;13.65;10.40;;;0.80;99.90;;;;;;5081673;28;20199;-77
2024/01/28 08:20:16;;;;;;;14.02;11.15;;;0.90;99.90;;;;;;5073679;28;20202;-75
2024/01/28 08:22:43;;;;;;;21.77;11.95;;;0.90;99.90;;;;;;5084439;28;20202;-76
2024/01/28 08:25:11;;;;;;;11.93;10.18;;;0.90;99.90;;;;;;5076031;28;20187;-74
2024/01/28 08:27:39;;;;;;;15.45;11.50;;;1.00;99.90;;;;;;5082286;28;20231;-78
2024/01/28 08:30:07;;;;;;;13.23;10.50;;;1.10;99.90;;;;;;5072906;28;20196;-76
2024/01/28 08:32:34;;;;;;;13.43;10.18;;;1.20;99.90;;;;;;5076025;28;20202;-75
2024/01/28 08:35:03;;;;;;;16.13;11.60;;;1.20;99.90;;;;;;5081289;28;20293;-86
2024/01/28 08:37:29;;;;;;;13.73;10.88;;;1.30;99.90;;;;;;5080443;28;20191;-87
2024/01/28 08:39:56;;;;;;;11.25;10.02;;;1.30;99.90;;;;;;5084202;28;20924;-87
2024/01/28 08:42:23;;;;;;;13.55;10.50;;;1.50;99.90;;;;;;5085781;28;20196;-87
2024/01/28 08:44:51;;;;;;;14.32;11.02;;;1.50;99.90;;;;;;5084226;28;20203;-86
2024/01/28 08:47:18;;;;;;;14.90;11.05;;;1.60;99.90;;;;;;5070838;28;20220;-79
2024/01/28 08:49:45;;;;;;;11.85;9.80;;;1.80;99.90;;;;;;5069313;28;20201;-84
2024/01/28 08:52:12;;;;;;;15.07;10.50;;;1.90;99.90;;;;;;5075286;28;20845;-85
2024/01/28 08:54:38;;;;;;;14.43;11.38;;;1.90;99.90;;;;;;5072195;28;20203;-84
2024/01/28 08:57:05;;;;;;;10.15;9.10;;;2.10;99.90;;;;;;5076995;28;20206;-83
2024/01/28 08:59:32;;;;;;;15.77;12.65;;;1.90;99.90;;;;;;5075901;28;21110;-84
2024/01/28 09:02:00;;;;;;;11.55;10.07;;;2.20;99.90;;;;;;5075674;28;20646;-86
2024/01/28 09:04:27;;;;;;;19.05;11.57;;;2.30;99.90;;;;;;5073944;28;20196;-82
2024/01/28 09:06:54;;;;;;;12.82;10.30;;;2.40;99.90;;;;;;5073244;28;20224;-86
2024/01/28 09:09:21;;;;;;;11.85;9.95;;;2.50;99.90;;;;;;5073784;28;20192;-85
2024/01/28 09:11:48;;;;;;;12.07;10.77;;;2.70;99.90;;;;;;5070683;28;20291;-85
2024/01/28 09:14:15;;;;;;;12.75;9.75;;;2.70;99.90;;;;;;5082651;28;20671;-82
2024/01/28 09:17:00;;;;;;;13.40;9.45;;;2.90;99.90;;;;;;5075385;28;20280;-85
2024/01/28 09:19:27;;;;;;;12.32;10.80;;;2.90;99.90;;;;;;5083225;28;20233;-81
2024/01/28 09:21:54;;;;;;;12.93;10.32;;;3.10;99.90;;;;;;5075647;28;20205;-81
2024/01/28 09:24:39;;;;;;;11.43;10.23;;;3.50;99.90;;;;;;5076120;28;20195;-82
2024/01/28 09:27:06;;;;;;;14.13;11.20;;;3.60;99.90;;;;;;5080068;28;20270;-81
2024/01/28 09:29:33;;;;;;;13.45;10.15;;;3.30;99.90;;;;;;5075409;28;20659;-82
2024/01/28 09:32:02;;;;;;;15.13;11.88;;;3.50;99.90;;;;;;5083804;28;20209;-81
2024/01/28 09:34:29;;;;;;;11.88;10.25;;;3.50;99.90;;;;;;5090885;28;20228;-81
2024/01/28 09:36:56;;;;;;;12.02;10.13;;;3.60;99.90;;;;;;5082234;28;20301;-81
2024/01/28 09:39:22;;;;;;;13.23;10.60;;;3.50;99.90;;;;;;5088007;28;20221;-82
2024/01/28 09:41:56;;;;;;;12.68;10.10;;;3.80;99.90;;;;;;5082927;28;20317;-82
2024/01/28 09:44:23;;;;;;;11.95;10.70;;;4.00;99.90;;;;;;5088962;28;20666;-83
2024/01/28 09:46:50;;;;;;;13.68;11.90;;;4.40;99.90;;;;;;5086967;28;20422;-82
2024/01/28 09:49:20;;;;;;;16.58;10.68;;;3.90;99.90;;;;;;5084152;28;20285;-82
2024/01/28 09:51:47;;;;;;;15.15;12.65;;;3.80;99.90;;;;;;5081558;28;20312;-82
2024/01/28 09:54:14;;;;;;;14.80;11.40;;;3.90;99.90;;;;;;5085956;28;20197;-82
2024/01/28 09:56:42;;;;;;;14.98;11.05;;;4.00;99.90;;;;;;5079510;28;20233;-81
2024/01/28 09:59:09;;;;;;;14.38;11.63;;;4.20;99.90;;;;;;5086015;28;20204;-80
2024/01/28 10:01:36;;;;;;;13.05;11.65;;;4.00;99.90;;;;;;5084391;28;20208;-80
2024/01/28 10:04:03;;;;;;;12.90;11.40;;;4.10;99.90;;;;;;5078219;28;20285;-81
2024/01/28 10:06:32;;;;;;;13.15;11.90;;;4.10;99.90;;;;;;5073923;28;20573;-82
2024/01/28 10:08:59;;;;;;;12.10;10.68;;;4.20;99.90;;;;;;5070927;28;20230;-80
2024/01/28 10:11:26;;;;;;;17.23;11.70;;;4.40;99.90;;;;;;5073116;28;20281;-82
2024/01/28 10:13:53;;;;;;;11.23;10.10;;;4.40;99.90;;;;;;5074249;28;20773;-82
2024/01/28 10:16:23;;;;;;;13.10;10.93;;;4.20;99.80;;;;;;5075755;28;20201;-83
2024/01/28 10:18:50;;;;;;;13.02;10.15;;;4.30;99.90;;;;;;5075211;28;20556;-73
2024/01/28 10:21:17;;;;;;;11.27;9.98;;;4.40;99.90;;;;;;5081184;28;20194;-81
2024/01/28 10:23:46;;;;;;;11.85;10.52;;;4.20;99.90;;;;;;5076550;28;20202;-80
2024/01/28 10:26:12;;;;;;;12.05;10.10;;;4.90;99.90;;;;;;5078491;28;20194;-80
2024/01/28 10:28:40;;;;;;;13.68;9.82;;;4.30;99.90;;;;;;5073842;28;20230;-80
2024/01/28 10:31:07;;;;;;;11.95;9.15;;;4.40;99.80;;;;;;5087294;28;20588;-81
2024/01/28 10:33:34;;;;;;;8.77;7.95;;;;;;;;;;5084859;28;20281;-83
2024/01/28 10:36:05;;;;;;;12.18;10.23;;;4.70;99.90;;;;;;5079886;28;20716;-83
2024/01/28 10:38:33;;;;;;;11.30;10.10;;;4.70;99.90;;;;;;5075333;28;20199;-84
2024/01/28 10:41:02;;;;;;;11.40;9.85;;;4.70;99.90;;;;;;5076049;28;20207;-74
2024/01/28 10:43:36;;;;;;;10.48;9.43;;;4.90;99.90;;;;;;5076088;28;20195;-74
2024/01/28 10:46:07;;;;;;;9.02;6.70;;;4.80;99.90;;;;;;5076458;28;20195;-74
2024/01/28 10:48:38;;;;;;;11.05;7.07;;;5.50;99.80;;;;;;5075218;28;20343;-75
2024/01/28 10:51:06;;;;;;;17.85;7.47;;;5.00;99.90;;;;;;5073599;28;20201;-76
2024/01/28 10:53:33;;;;;;;8.10;6.68;;;5.50;99.90;;;;;;5066681;28;20787;-75
2024/01/28 10:56:02;;;;;;;8.48;7.50;;;5.60;99.90;;;;;;5070762;28;20290;-77
2024/01/28 10:58:30;;;;;;;9.07;6.82;;;5.50;96.90;;;;;;5072321;28;20663;-77
2024/01/28 11:00:57;;;;;;;8.82;6.22;;;5.70;99.90;;;;;;5072694;28;20215;-76
2024/01/28 11:03:24;;;;;;;8.82;6.68;;;5.60;99.90;;;;;;5072877;28;20623;-76
2024/01/28 11:05:51;;;;;;;9.68;6.35;;;5.90;99.90;;;;;;5073586;28;20503;-77
2024/01/28 11:08:18;;;;;;;9.93;6.20;;;5.50;99.90;;;;;;5075212;28;20218;-79
2024/01/28 11:10:44;;;;;;;5.90;5.40;;;5.90;99.90;;;;;;5072071;28;20191;-79
2024/01/28 11:13:13;;;;;;;5.78;5.28;;;5.90;99.90;;;;;;5073544;28;20204;-79
2024/01/28 11:15:42;;;;;;;7.95;5.20;;;6.20;99.90;;;;;;5074042;28;20550;-79
2024/01/28 11:18:10;;;;;;;6.32;5.72;;;6.00;99.90;;;;;;5086842;28;20195;-79
2024/01/28 11:20:37;;;;;;;6.28;5.05;;;6.50;99.90;;;;;;5085010;28;20199;-79
2024/01/28 11:23:04;;;;;;;5.30;4.43;;;6.40;99.90;;;;;;5091967;28;20201;-79
2024/01/28 11:25:33;;;;;;;9.15;4.72;;;;;;;;;;5093757;28;20565;-79
2024/01/28 11:28:01;;;;;;;4.10;3.70;;;6.90;99.90;;;;;;5096103;28;20276;-79
2024/01/28 11:30:30;;;;;;;4.43;3.97;;;6.70;99.90;;;;;;5093586;28;20277;-79
2024/01/28 11:33:07;;;;;;;4.85;3.78;;;6.60;99.90;;;;;;5096025;28;20199;-79
2024/01/28 11:35:34;;;;;;;4.68;3.75;;;;;;;;;;5095327;28;20659;-79
2024/01/28 11:38:05;;;;;;;4.60;4.13;;;6.80;99.90;;;;;;5095308;28;20203;-79
2024/01/28 11:40:36;;;;;;;5.33;4.70;;;7.10;99.90;;;;;;5097972;28;20284;-79
2024/01/28 11:43:06;;;;;;;4.47;4.07;;;6.90;99.90;;;;;;5081335;28;20636;-79
2024/01/28 11:45:35;;;;;;;4.93;4.33;;;7.00;92.10;;;;;;5083980;28;20626;-79
2024/01/28 11:48:09;;;;;;;5.00;4.33;;;7.20;99.90;;;;;;5081243;28;20667;-80
2024/01/28 11:50:36;;;;;;;5.93;4.63;;;7.10;99.90;;;;;;5082595;28;20631;-79
2024/01/28 11:53:06;;;;;;;5.40;4.87;;;6.70;99.90;;;;;;5088802;28;20634;-79
2024/01/28 11:55:33;;;;;;;7.20;5.30;;;8.00;93.30;;;;;;5087255;28;20716;-79
2024/01/28 11:58:03;;;;;;;5.30;4.60;;;7.40;97.70;;;;;;5085597;28;20628;-79
2024/01/28 12:00:32;;;;;;;4.27;3.87;;;7.30;91.90;;;;;;5082904;28;20613;-79
2024/01/28 12:03:01;;;;;;;6.70;4.70;;;7.30;92.00;;;;;;5076406;28;20668;-79
2024/01/28 12:05:29;;;;;;;5.23;4.40;;;;;;;;;;5087779;28;20616;-79
2024/01/28 12:07:58;;;;;;;4.97;4.30;;;7.30;91.60;;;;;;5079341;28;21022;-79
2024/01/28 12:10:25;;;;;;;5.07;4.53;;;8.00;91.40;;;;;;5072895;28;20626;-80
2024/01/28 12:12:55;;;;;;;6.67;4.43;;;;;;;;;;5078381;28;21170;-80
2024/01/28 12:15:22;;;;;;;4.23;3.60;;;;;;;;;;5089300;28;20621;-80
2024/01/28 12:17:51;;;;;;;3.90;3.53;;;7.50;97.80;;;;;;5087056;28;20656;-80
2024/01/28 12:20:26;;;;;;;3.60;3.10;;;7.70;90.00;;;;;;5083034;28;20608;-80
2024/01/28 12:22:55;;;;;;;4.73;4.30;;;7.90;99.90;;;;;;5076967;28;21096;-80
2024/01/28 12:25:24;;;;;;;4.70;3.57;;;7.70;90.50;;;;;;5082070;28;20735;-79
2024/01/28 12:27:54;;;;;;;4.73;4.33;;;;;;;;;;5072517;28;20665;-80
2024/01/28 12:30:21;;;;;;;5.37;4.83;;;7.90;99.90;;;;;;5082870;28;21161;-80
2024/01/28 12:32:51;;;;;;;5.03;4.53;;;7.90;99.20;;;;;;5075954;28;20639;-80
2024/01/28 12:35:18;;;;;;;7.30;4.60;;;;;;;;;;5081670;28;20634;-80
2024/01/28 12:37:46;;;;;;;5.70;4.20;;;11.00;92.10;;;;;;5075020;28;20734;-80
2024/01/28 12:40:13;;;;;;;6.40;5.63;;;7.90;99.90;;;;;;5084159;28;20625;-79
2024/01/28 12:42:40;;;;;;;8.23;7.10;;;7.30;94.60;;;;;;5078669;28;20629;-79
2024/01/28 12:45:08;;;;;;;7.57;6.40;;;8.00;99.90;;;;;;5075240;28;20629;-80
2024/01/28 12:47:36;;;;;;;8.20;5.13;;;7.90;99.90;;;;;;5069848;28;20684;-79
2024/01/28 12:50:05;;;;;;;7.47;5.63;;;;;;;;;;5082906;28;20635;-79
2024/01/28 12:52:32;;;;;;;6.97;5.90;;;7.80;93.40;;;;;;5070669;28;20632;-79
2024/01/28 12:55:00;;;;;;;6.37;5.30;;;;;;;;;;5075797;28;20723;-80